Time;durP1;ratioP1;P1;durP2;ratioP2;P2;SDS_P1;SDS_P2;PMS_P1;PMS_P2;Temp;Humidity;BMP_temperature;BMP_pressure;BME280_temperature;BME280_humidity;BME280_pressure;Samples;Min_cycle;Max_cycle;Signal;HPM_P1;HPM_P2
2023/12/29 00:02:07;;;;;;;2.60;2.30;;;;;;;8.25;100.00;153477.88;4990303;28;20452;-76
2023/12/29 00:04:34;;;;;;;2.60;2.17;;;;;;;8.22;100.00;153471.44;4997280;28;20564;-76
2023/12/29 00:07:02;;;;;;;3.47;2.33;;;;;;;8.24;100.00;153476.59;5002935;28;20459;-76
2023/12/29 00:09:28;;;;;;;2.60;2.07;;;;;;;8.26;100.00;153481.75;5007380;28;20484;-76
2023/12/29 00:11:55;;;;;;;3.37;2.87;;;;;;;8.25;100.00;153479.19;4988118;28;20507;-76
2023/12/29 00:14:21;;;;;;;3.10;2.00;;;;;;;8.27;100.00;153484.41;4977073;28;20855;-76
2023/12/29 00:16:48;;;;;;;2.50;2.13;;;;;;;8.26;100.00;153481.75;4990445;28;20448;-76
2023/12/29 00:19:15;;;;;;;3.10;2.60;;;;;;;8.29;100.00;153489.56;4997938;28;20478;-76
2023/12/29 00:21:42;;;;;;;3.00;2.17;;;;;;;8.28;100.00;153487.00;4999283;28;20468;-76
2023/12/29 00:24:10;;;;;;;3.87;2.70;;;;;;;8.29;100.00;153489.56;5015122;28;20481;-76
2023/12/29 00:26:36;;;;;;;2.63;2.20;;;;;;;8.33;100.00;153499.91;5011178;28;20444;-76
2023/12/29 00:29:05;;;;;;;3.53;2.10;;;;;;;8.31;100.00;153493.47;4977707;28;20699;-76
2023/12/29 00:31:33;;;;;;;3.37;2.30;;;;;;;8.30;100.00;153492.16;5011902;28;20579;-76
2023/12/29 00:33:59;;;;;;;3.27;2.53;;;;;;;8.27;100.00;153483.09;5002567;28;20972;-75
2023/12/29 00:36:26;;;;;;;3.53;2.67;;;;;;;8.25;100.00;153479.19;4974107;28;20460;-75
2023/12/29 00:38:53;;;;;;;2.67;2.40;;;;;;;8.26;100.00;153481.75;4990672;28;20442;-75
2023/12/29 00:41:20;;;;;;;4.17;2.70;;;;;;;8.22;100.00;153470.13;4993684;28;20872;-75
2023/12/29 00:43:47;;;;;;;3.10;2.30;;;;;;;8.21;100.00;153467.50;5000440;28;20457;-75
2023/12/29 00:46:15;;;;;;;3.50;2.40;;;;;;;8.21;100.00;153468.81;5000104;28;20445;-75
2023/12/29 00:48:42;;;;;;;2.90;2.50;;;;;;;8.18;100.00;153461.06;5002724;28;20465;-75
2023/12/29 00:51:09;;;;;;;2.60;2.30;;;;;;;8.20;100.00;153464.97;5005522;28;20851;-76
2023/12/29 00:53:36;;;;;;;3.17;2.50;;;;;;;8.20;100.00;153464.97;4970832;28;20895;-74
2023/12/29 00:56:04;;;;;;;3.27;2.97;;;;;;;8.21;100.00;153467.50;5008403;28;20464;-77
2023/12/29 00:58:31;;;;;;;4.47;2.97;;;;;;;8.22;100.00;153471.44;4982660;28;20511;-75
2023/12/29 01:00:58;;;;;;;3.67;3.00;;;;;;;8.23;100.00;153474.03;4991941;28;20476;-75
2023/12/29 01:03:24;;;;;;;6.60;3.00;;;;;;;8.26;100.00;153481.75;5021885;28;20914;-75
2023/12/29 01:05:51;;;;;;;4.70;2.43;;;;;;;8.26;100.00;153481.75;5008464;28;20464;-75
2023/12/29 01:08:18;;;;;;;3.63;2.50;;;;;;;8.27;100.00;153483.09;4981010;28;20438;-75
2023/12/29 01:10:44;;;;;;;3.90;2.93;;;;;;;8.25;100.00;153479.19;4983953;28;20464;-75
2023/12/29 01:13:11;;;;;;;3.10;2.80;;;;;;;8.23;100.00;153474.03;5007136;28;20456;-77
2023/12/29 01:15:44;;;;;;;3.57;3.13;;;;;;;8.25;100.00;153477.88;4992245;28;20447;-77
2023/12/29 01:18:10;;;;;;;3.03;2.50;;;;;;;8.24;100.00;153476.59;5010535;28;20437;-76
2023/12/29 01:20:39;;;;;;;3.80;2.73;;;;;;;8.25;100.00;153479.19;4990001;28;20487;-78
2023/12/29 01:23:05;;;;;;;3.47;2.60;;;;;;;8.25;100.00;153477.88;4981564;28;20444;-77
2023/12/29 01:25:32;;;;;;;4.27;2.50;;;;;;;8.27;100.00;153484.41;4991827;28;20456;-77
2023/12/29 01:27:58;;;;;;;3.43;2.90;;;;;;;8.28;100.00;153487.00;5009859;28;21233;-77
2023/12/29 01:30:25;;;;;;;3.47;2.93;;;;;;;8.27;100.00;153484.41;4987543;28;20469;-77
2023/12/29 01:32:53;;;;;;;4.40;3.00;;;;;;;8.28;100.00;153487.00;4998364;28;20847;-76
2023/12/29 01:35:19;;;;;;;3.10;2.47;;;;;;;8.26;100.00;153481.75;5025228;28;20453;-77
2023/12/29 01:37:46;;;;;;;3.50;3.00;;;;;;;8.24;100.00;153475.28;5009593;28;20923;-77
2023/12/29 01:40:13;;;;;;;3.10;2.63;;;;;;;8.21;100.00;153468.81;4985341;28;20954;-76
2023/12/29 01:42:39;;;;;;;4.47;2.90;;;;;;;8.22;100.00;153470.13;5008814;28;20965;-76
2023/12/29 01:45:07;;;;;;;4.63;3.00;;;;;;;8.22;100.00;153470.13;4999825;28;20454;-76
2023/12/29 01:47:34;;;;;;;4.00;2.90;;;;;;;8.24;100.00;153476.59;4974534;28;20936;-76
2023/12/29 01:50:01;;;;;;;4.23;2.83;;;;;;;8.27;100.00;153484.41;5000033;28;20521;-76
2023/12/29 01:52:28;;;;;;;4.00;3.33;;;;;;;8.28;100.00;153485.69;5005679;28;21173;-76
2023/12/29 01:54:54;;;;;;;3.10;2.57;;;;;;;8.27;100.00;153484.41;4974714;28;20464;-76
2023/12/29 01:57:21;;;;;;;6.07;3.60;;;;;;;8.29;100.00;153488.25;4990364;28;20572;-76
2023/12/29 01:59:48;;;;;;;3.10;2.80;;;;;;;8.28;100.00;153487.00;5005012;28;20543;-76
2023/12/29 02:02:16;;;;;;;3.53;3.10;;;;;;;8.29;100.00;153489.56;4975502;28;20281;-76
2023/12/29 02:04:43;;;;;;;3.17;2.87;;;;;;;8.30;100.00;153492.16;5014539;28;20485;-76
2023/12/29 02:07:11;;;;;;;4.80;3.30;;;;;;;8.28;100.00;153487.00;4992053;28;20445;-76
2023/12/29 02:09:37;;;;;;;4.07;3.27;;;;;;;8.28;100.00;153485.69;5003174;28;20952;-76
2023/12/29 02:12:04;;;;;;;5.70;3.43;;;;;;;8.31;100.00;153494.72;4996672;28;20489;-77
2023/12/29 02:14:31;;;;;;;5.00;3.10;;;;;;;8.30;100.00;153492.16;5020401;28;20484;-76
2023/12/29 02:17:03;;;;;;;3.40;2.70;;;;;;;8.30;100.00;153492.16;5016443;28;20457;-76
2023/12/29 02:19:38;;;;;;;3.73;3.37;;;;;;;8.31;100.00;153493.47;5008478;28;20845;-76
2023/12/29 02:22:06;;;;;;;6.70;3.70;;;;;;;8.29;100.00;153489.56;4987518;28;20474;-76
2023/12/29 02:24:34;;;;;;;4.50;3.50;;;;;;;8.32;100.00;153497.31;5017676;28;20468;-76
2023/12/29 02:27:08;;;;;;;4.00;3.23;;;;;;;8.30;100.00;153492.16;4986663;28;20433;-76
2023/12/29 02:29:36;;;;;;;4.50;3.40;;;;;;;8.33;100.00;153499.91;5013044;28;20460;-76
2023/12/29 02:32:05;;;;;;;3.97;3.57;;;;;;;8.35;100.00;153505.06;4984295;28;20470;-76
2023/12/29 02:34:32;;;;;;;6.20;3.60;;;;;;;8.36;100.00;153506.38;5012343;28;20452;-76
2023/12/29 02:36:59;;;;;;;5.50;3.47;;;;;;;8.36;100.00;153506.38;4975263;28;20436;-76
2023/12/29 02:39:26;;;;;;;4.00;3.60;;;;;;;8.38;100.00;153512.84;4986608;28;20451;-76
2023/12/29 02:41:52;;;;;;;4.53;3.50;;;;;;;8.39;100.00;153514.13;4985478;28;20476;-75
2023/12/29 02:44:20;;;;;;;4.40;3.73;;;;;;;8.39;100.00;153514.13;4990179;28;20443;-77
2023/12/29 02:46:47;;;;;;;3.87;3.47;;;;;;;8.43;100.00;153524.47;5006071;28;20444;-77
2023/12/29 02:49:13;;;;;;;3.77;3.27;;;;;;;8.45;100.00;153530.91;4994652;28;20476;-76
2023/12/29 02:51:40;;;;;;;3.90;3.37;;;;;;;8.43;100.00;153524.47;4989822;28;20452;-76
2023/12/29 02:54:07;;;;;;;6.00;3.97;;;;;;;8.41;100.00;153519.28;5005525;28;20679;-76
2023/12/29 02:56:34;;;;;;;4.43;3.40;;;;;;;8.40;100.00;153518.00;5007453;28;20440;-76
2023/12/29 02:59:00;;;;;;;4.57;3.80;;;;;;;8.42;100.00;153523.16;4996707;28;20457;-76
2023/12/29 03:01:28;;;;;;;4.50;3.30;;;;;;;8.40;100.00;153518.00;4980381;28;20513;-76
2023/12/29 03:03:56;;;;;;;4.60;3.80;;;;;;;8.37;100.00;153510.22;5008340;28;20460;-76
2023/12/29 03:06:22;;;;;;;4.50;3.80;;;;;;;8.37;100.00;153510.22;4998015;28;20454;-76
2023/12/29 03:08:49;;;;;;;6.20;4.53;;;;;;;8.38;100.00;153511.53;4978188;28;20482;-76
2023/12/29 03:11:15;;;;;;;4.70;3.50;;;;;;;8.38;100.00;153512.84;5014629;28;20456;-76
2023/12/29 03:13:42;;;;;;;4.33;3.73;;;;;;;8.36;100.00;153507.69;5000335;28;20464;-76
2023/12/29 03:16:08;;;;;;;6.00;4.03;;;;;;;8.34;100.00;153502.47;5009023;28;20515;-76
2023/12/29 03:18:39;;;;;;;3.63;3.20;;;;;;;8.36;100.00;153507.69;5017175;28;20488;-76
2023/12/29 03:21:07;;;;;;;4.10;3.70;;;;;;;8.36;100.00;153506.38;4990547;28;20472;-76
2023/12/29 03:23:33;;;;;;;4.20;3.53;;;;;;;8.36;100.00;153507.69;4989593;28;20439;-76
2023/12/29 03:26:00;;;;;;;4.03;3.47;;;;;;;8.34;100.00;153502.47;5002802;28;20472;-76
2023/12/29 03:28:26;;;;;;;4.67;4.10;;;;;;;8.35;100.00;153505.06;5024017;28;20451;-76
2023/12/29 03:30:53;;;;;;;4.63;3.70;;;;;;;8.36;100.00;153507.69;5023780;28;20974;-76
2023/12/29 03:33:19;;;;;;;4.10;3.70;;;;;;;8.35;100.00;153503.78;4991013;28;20436;-76
2023/12/29 03:35:47;;;;;;;4.40;4.00;;;;;;;8.32;100.00;153497.31;4984473;28;20460;-76
2023/12/29 03:38:15;;;;;;;4.47;4.07;;;;;;;8.33;100.00;153499.91;5016012;28;20973;-77
2023/12/29 03:40:41;;;;;;;5.27;3.77;;;;;;;8.29;100.00;153489.56;5010988;28;20484;-76
2023/12/29 03:43:08;;;;;;;4.17;3.70;;;;;;;8.31;100.00;153494.72;4990997;28;20798;-76
2023/12/29 03:45:35;;;;;;;4.23;3.70;;;;;;;8.28;100.00;153487.00;4998292;28;20982;-76
2023/12/29 03:48:01;;;;;;;4.50;3.80;;;;;;;8.26;100.00;153481.75;4990193;28;20452;-76
2023/12/29 03:50:28;;;;;;;4.00;3.40;;;;;;;8.24;100.00;153476.59;5022949;28;20433;-75
2023/12/29 03:52:56;;;;;;;4.30;3.60;;;;;;;8.23;100.00;153474.03;4995772;28;20460;-76
2023/12/29 03:55:22;;;;;;;4.67;3.27;;;;;;;8.23;100.00;153474.03;5004527;28;20456;-76
2023/12/29 03:57:49;;;;;;;3.63;3.20;;;;;;;8.20;100.00;153466.28;4995162;28;20460;-76
2023/12/29 04:00:16;;;;;;;4.60;3.10;;;;;;;8.15;100.00;153453.34;4994372;28;20473;-76
2023/12/29 04:02:43;;;;;;;4.47;3.60;;;;;;;8.13;100.00;153448.13;4985602;28;20473;-76
2023/12/29 04:05:12;;;;;;;3.53;3.00;;;;;;;8.08;100.00;153435.22;4991811;28;20464;-77
2023/12/29 04:07:40;;;;;;;4.30;3.40;;;;;;;8.06;100.00;153430.06;5027419;28;20448;-77
2023/12/29 04:10:08;;;;;;;4.20;3.37;;;;;;;8.05;100.00;153427.47;5025275;28;20460;-76
2023/12/29 04:12:35;;;;;;;3.63;3.07;;;;;;;8.05;100.00;153426.22;5000681;28;20441;-76
2023/12/29 04:15:02;;;;;;;3.87;3.40;;;;;;;8.04;100.00;153424.91;5002374;28;20459;-76
2023/12/29 04:17:28;;;;;;;3.23;2.57;;;;;;;8.01;100.00;153417.16;5008875;28;20460;-76
2023/12/29 04:19:55;;;;;;;3.53;2.97;;;;;;;8.01;100.00;153417.16;4994121;28;20460;-76
2023/12/29 04:22:22;;;;;;;6.47;3.90;;;;;;;7.99;100.00;153413.25;5012350;28;20567;-76
2023/12/29 04:24:48;;;;;;;4.50;3.73;;;;;;;7.95;100.00;153402.94;5008141;28;20460;-76
2023/12/29 04:27:18;;;;;;;4.33;3.53;;;;;;;7.94;100.00;153399.09;5010358;28;20455;-76
2023/12/29 04:29:44;;;;;;;4.27;3.50;;;;;;;7.92;100.00;153393.88;4994334;28;20453;-77
2023/12/29 04:32:11;;;;;;;3.13;2.83;;;;;;;7.94;100.00;153399.09;4997999;28;20807;-76
2023/12/29 04:34:37;;;;;;;4.83;3.33;;;;;;;7.94;100.00;153399.09;4999309;28;20462;-76
2023/12/29 04:37:04;;;;;;;3.00;2.67;;;;;;;7.95;100.00;153402.94;5010847;28;20460;-76
2023/12/29 04:39:31;;;;;;;4.33;3.33;;;;;;;7.97;100.00;153406.78;4971380;28;20810;-76
2023/12/29 04:41:58;;;;;;;4.33;3.20;;;;;;;7.97;100.00;153406.78;4994038;28;20476;-76
2023/12/29 04:44:26;;;;;;;3.70;3.00;;;;;;;7.98;100.00;153410.69;5010480;28;20464;-76
2023/12/29 04:46:52;;;;;;;4.87;4.23;;;;;;;7.97;100.00;153406.78;4994444;28;20448;-76
2023/12/29 04:49:19;;;;;;;3.77;3.00;;;;;;;7.97;100.00;153406.78;5003987;28;20448;-76
2023/12/29 04:51:48;;;;;;;4.00;3.30;;;;;;;7.95;100.00;153401.63;5000028;28;20450;-76
2023/12/29 04:54:14;;;;;;;3.33;2.87;;;;;;;7.94;100.00;153400.34;4986688;28;20449;-76
2023/12/29 04:56:41;;;;;;;4.50;3.50;;;;;;;7.93;100.00;153397.78;5022252;28;20543;-76
2023/12/29 04:59:07;;;;;;;4.20;3.70;;;;;;;7.94;100.00;153399.09;4995866;28;20468;-76
2023/12/29 05:01:35;;;;;;;3.70;3.40;;;;;;;7.95;100.00;153401.63;5010850;28;20481;-76
2023/12/29 05:04:02;;;;;;;3.67;3.00;;;;;;;7.93;100.00;153396.47;5002864;28;20487;-76
2023/12/29 05:06:29;;;;;;;4.50;3.40;;;;;;;7.92;100.00;153393.88;5016406;28;20457;-76
2023/12/29 05:08:55;;;;;;;3.90;3.03;;;;;;;7.92;100.00;153393.88;5021114;28;20444;-76
2023/12/29 05:11:22;;;;;;;5.50;3.87;;;;;;;7.91;100.00;153391.31;5000951;28;20460;-76
2023/12/29 05:13:48;;;;;;;3.47;3.17;;;;;;;7.90;100.00;153388.72;5001557;28;20483;-75
2023/12/29 05:16:15;;;;;;;4.47;3.53;;;;;;;7.90;100.00;153388.72;5011500;28;20463;-76
2023/12/29 05:18:43;;;;;;;3.63;3.20;;;;;;;7.88;100.00;153384.88;5002619;28;20456;-76
2023/12/29 05:21:15;;;;;;;6.63;3.40;;;;;;;7.90;100.00;153390.03;5001814;28;20973;-76
2023/12/29 05:23:42;;;;;;;3.10;2.80;;;;;;;7.91;100.00;153392.63;4985652;28;20547;-76
2023/12/29 05:26:08;;;;;;;4.80;3.03;;;;;;;7.91;100.00;153392.63;4989858;28;20466;-76
2023/12/29 05:28:35;;;;;;;5.13;3.37;;;;;;;7.93;100.00;153396.47;5005031;28;20468;-76
2023/12/29 05:31:03;;;;;;;3.87;3.20;;;;;;;7.92;100.00;153395.19;5001122;28;20567;-77
2023/12/29 05:33:29;;;;;;;5.47;3.43;;;;;;;7.91;100.00;153391.31;5001939;28;20567;-76
2023/12/29 05:35:57;;;;;;;3.60;3.13;;;;;;;7.90;100.00;153388.72;4987536;28;20457;-75
2023/12/29 05:38:24;;;;;;;5.10;3.57;;;;;;;7.92;100.00;153393.88;5005340;28;20452;-76
2023/12/29 05:40:51;;;;;;;4.57;3.23;;;;;;;7.94;100.00;153399.09;5021674;28;20472;-75
2023/12/29 05:43:18;;;;;;;6.23;4.87;;;;;;;7.94;100.00;153399.09;5009838;28;20473;-76
2023/12/29 05:45:45;;;;;;;3.40;3.07;;;;;;;7.92;100.00;153395.19;5005264;28;20538;-76
2023/12/29 05:48:11;;;;;;;4.20;3.80;;;;;;;7.91;100.00;153391.31;4981611;28;20444;-75
2023/12/29 05:50:38;;;;;;;6.80;3.97;;;;;;;7.91;100.00;153391.31;5009676;28;20464;-76
2023/12/29 05:53:06;;;;;;;4.40;3.50;;;;;;;7.89;100.00;153387.41;5008639;28;20471;-76
2023/12/29 05:55:33;;;;;;;5.10;3.80;;;;;;;7.88;100.00;153384.88;5006454;28;20558;-76
2023/12/29 05:57:59;;;;;;;3.70;3.10;;;;;;;7.87;100.00;153380.97;5002792;28;20452;-75
2023/12/29 06:00:26;;;;;;;3.77;3.10;;;;;;;7.86;100.00;153378.41;5009829;28;20483;-75
2023/12/29 06:02:53;;;;;;;4.50;3.20;;;;;;;7.86;100.00;153378.41;4988297;28;20501;-76
2023/12/29 06:05:19;;;;;;;3.90;3.13;;;;;;;7.84;100.00;153374.50;4997875;28;20580;-76
2023/12/29 06:07:46;;;;;;;4.20;3.37;;;;;;;7.82;100.00;153368.03;5009090;28;20456;-76
2023/12/29 06:10:13;;;;;;;4.27;3.20;;;;;;;7.82;100.00;153368.03;4997117;28;20456;-76
2023/12/29 06:12:40;;;;;;;5.10;3.80;;;;;;;7.80;100.00;153364.19;4982676;28;20446;-76
2023/12/29 06:15:07;;;;;;;4.93;3.43;;;;;;;7.80;100.00;153362.88;5012139;28;20874;-76
2023/12/29 06:17:35;;;;;;;4.20;3.60;;;;;;;7.80;100.00;153362.88;4994201;28;20542;-76
2023/12/29 06:20:02;;;;;;;3.73;3.10;;;;;;;7.81;100.00;153366.75;5010452;28;20506;-76
2023/12/29 06:22:28;;;;;;;4.10;3.50;;;;;;;7.83;100.00;153370.66;4995843;28;20595;-76
2023/12/29 06:24:55;;;;;;;4.80;3.40;;;;;;;7.85;100.00;153375.81;4995647;28;20471;-76
2023/12/29 06:27:23;;;;;;;4.60;3.67;;;;;;;7.87;100.00;153380.97;4978851;28;20461;-76
2023/12/29 06:29:50;;;;;;;4.50;3.23;;;;;;;7.88;100.00;153383.56;4981248;28;20460;-76
2023/12/29 06:32:17;;;;;;;4.63;3.73;;;;;;;7.90;100.00;153388.72;4980069;28;20997;-76
2023/12/29 06:34:44;;;;;;;4.60;3.50;;;;;;;7.89;100.00;153387.41;4974358;28;20464;-76
2023/12/29 06:37:10;;;;;;;3.50;3.10;;;;;;;7.90;100.00;153388.72;4975682;28;20954;-76
2023/12/29 06:39:38;;;;;;;3.50;3.10;;;;;;;7.92;100.00;153393.88;4995419;28;20461;-76
2023/12/29 06:42:05;;;;;;;3.87;3.23;;;;;;;7.89;100.00;153387.41;4979259;28;20464;-75
2023/12/29 06:44:33;;;;;;;3.00;2.70;;;;;;;7.93;100.00;153396.47;4991443;28;20527;-76
2023/12/29 06:47:00;;;;;;;4.43;3.40;;;;;;;7.95;100.00;153401.63;4996728;28;20515;-76
2023/12/29 06:49:26;;;;;;;3.93;3.30;;;;;;;7.95;100.00;153401.63;4977423;28;20461;-76
2023/12/29 06:51:53;;;;;;;5.00;3.43;;;;;;;7.94;100.00;153400.34;4977961;28;20453;-75
2023/12/29 06:54:19;;;;;;;4.30;3.63;;;;;;;7.96;100.00;153404.22;4974935;28;20971;-76
2023/12/29 06:56:46;;;;;;;5.97;3.70;;;;;;;7.95;100.00;153401.63;4994559;28;20456;-76
2023/12/29 06:59:12;;;;;;;4.13;3.60;;;;;;;7.94;100.00;153399.09;4976130;28;20471;-75
2023/12/29 07:01:41;;;;;;;3.87;3.47;;;;;;;7.94;100.00;153399.09;4979553;28;20970;-76
2023/12/29 07:04:09;;;;;;;4.90;3.13;;;;;;;7.92;100.00;153393.88;4988987;28;20488;-76
2023/12/29 07:06:36;;;;;;;4.30;3.77;;;;;;;7.92;100.00;153395.19;5009950;28;21149;-76
2023/12/29 07:09:03;;;;;;;3.17;2.67;;;;;;;7.92;100.00;153395.19;4996494;28;20444;-76
2023/12/29 07:11:30;;;;;;;3.90;3.23;;;;;;;7.92;100.00;153395.19;5010517;28;20493;-76
2023/12/29 07:13:56;;;;;;;3.47;2.57;;;;;;;7.92;100.00;153395.19;4996775;28;20457;-75
2023/12/29 07:16:23;;;;;;;4.53;4.00;;;;;;;7.92;100.00;153393.88;4996670;28;20487;-76
2023/12/29 07:18:51;;;;;;;3.40;2.80;;;;;;;7.92;100.00;153395.19;4986141;28;20460;-75
2023/12/29 07:21:18;;;;;;;4.53;3.90;;;;;;;7.92;100.00;153395.19;4977573;28;20460;-75
2023/12/29 07:23:45;;;;;;;3.50;3.10;;;;;;;7.94;100.00;153399.09;5010931;28;20556;-75
2023/12/29 07:26:11;;;;;;;3.33;2.90;;;;;;;7.93;100.00;153397.78;5013806;28;20451;-76
2023/12/29 07:28:38;;;;;;;4.50;3.43;;;;;;;7.96;100.00;153404.22;4979198;28;21065;-76
2023/12/29 07:31:05;;;;;;;4.10;3.10;;;;;;;7.98;100.00;153410.69;5003779;28;20627;-76
2023/12/29 07:33:31;;;;;;;4.37;3.67;;;;;;;7.98;100.00;153410.69;5018047;28;20446;-76
2023/12/29 07:36:00;;;;;;;3.03;2.73;;;;;;;7.98;100.00;153410.69;4982229;28;21869;-75
2023/12/29 07:38:27;;;;;;;3.87;3.10;;;;;;;7.98;100.00;153409.41;5004713;28;20451;-76
2023/12/29 07:40:53;;;;;;;3.13;2.83;;;;;;;7.99;100.00;153412.00;5000185;28;20966;-75
2023/12/29 07:43:20;;;;;;;3.20;2.70;;;;;;;8.01;100.00;153415.84;5004230;28;20477;-76
2023/12/29 07:45:47;;;;;;;3.80;2.87;;;;;;;8.04;100.00;153423.63;5001965;28;20457;-76
2023/12/29 07:48:13;;;;;;;4.20;2.97;;;;;;;8.04;100.00;153423.63;5018266;28;20456;-76
2023/12/29 07:50:40;;;;;;;5.23;3.13;;;;;;;8.06;100.00;153430.06;4999778;28;20841;-76
2023/12/29 07:53:08;;;;;;;3.80;2.30;;;;;;;8.08;100.00;153435.22;4981814;28;21215;-74
2023/12/29 07:55:38;;;;;;;3.80;2.90;;;;;;;8.10;100.00;153440.38;4982441;28;20805;-74
2023/12/29 07:58:05;;;;;;;4.70;3.20;;;;;;;8.11;100.00;153443.00;5003594;28;20456;-75
2023/12/29 08:00:31;;;;;;;4.60;3.37;;;;;;;8.15;100.00;153453.34;5014266;28;20461;-74
2023/12/29 08:02:59;;;;;;;4.43;2.47;;;;;;;8.16;100.00;153455.91;5003596;28;20830;-74
2023/12/29 08:05:25;;;;;;;3.83;3.40;;;;;;;8.16;100.00;153455.91;4987378;28;20492;-74
2023/12/29 08:07:52;;;;;;;5.00;2.60;;;;;;;8.18;100.00;153461.06;4985096;28;20444;-74
2023/12/29 08:10:20;;;;;;;3.87;3.30;;;;;;;8.19;100.00;153463.66;5015552;28;20518;-75
2023/12/29 08:12:47;;;;;;;3.80;3.00;;;;;;;8.21;100.00;153468.81;5000101;28;20475;-74
2023/12/29 08:15:13;;;;;;;3.27;2.97;;;;;;;8.24;100.00;153475.28;4998905;28;20476;-75
2023/12/29 08:17:40;;;;;;;3.80;3.23;;;;;;;8.26;100.00;153481.75;4997933;28;20457;-74
2023/12/29 08:20:08;;;;;;;3.20;2.90;;;;;;;8.29;100.00;153488.25;4998301;28;20460;-74
2023/12/29 08:22:34;;;;;;;3.50;2.60;;;;;;;8.30;100.00;153492.16;5000218;28;20540;-74
2023/12/29 08:25:01;;;;;;;3.87;3.17;;;;;;;8.33;100.00;153498.63;4999760;28;20453;-74
2023/12/29 08:27:29;;;;;;;3.17;2.43;;;;;;;8.33;100.00;153499.91;4992531;28;21013;-74
2023/12/29 08:29:55;;;;;;;3.90;3.43;;;;;;;8.37;100.00;153508.94;5000933;28;20459;-75
2023/12/29 08:32:22;;;;;;;3.80;3.23;;;;;;;8.39;100.00;153515.38;4980738;28;21002;-74
2023/12/29 08:34:49;;;;;;;4.90;2.97;;;;;;;8.41;100.00;153520.59;4978069;28;21014;-75
2023/12/29 08:37:19;;;;;;;3.63;3.13;;;;;;;8.41;100.00;153520.59;5000383;28;20453;-74
2023/12/29 08:39:46;;;;;;;3.57;3.20;;;;;;;8.43;100.00;153525.75;4980194;28;20449;-75
2023/12/29 08:42:13;;;;;;;3.40;3.10;;;;;;;8.44;100.00;153528.34;4999205;28;20798;-75
2023/12/29 08:44:41;;;;;;;4.43;3.10;;;;;;;8.47;100.00;153536.06;4968845;28;20480;-75
2023/12/29 08:47:08;;;;;;;3.43;3.13;;;;;;;8.51;100.00;153546.44;5014245;28;20499;-75
2023/12/29 08:49:34;;;;;;;3.33;2.93;;;;;;;8.51;100.00;153546.44;4979353;28;20465;-75
2023/12/29 08:52:01;;;;;;;4.07;2.90;;;;;;;8.53;100.00;153550.28;5013303;28;20457;-75
2023/12/29 08:54:27;;;;;;;3.90;3.40;;;;;;;8.54;100.00;153552.91;5014167;28;20465;-75
2023/12/29 08:56:54;;;;;;;4.70;3.27;;;;;;;8.57;100.00;153561.97;5013227;28;20971;-75
2023/12/29 08:59:20;;;;;;;3.70;2.73;;;;;;;8.58;100.00;153564.53;4989747;28;20468;-75
2023/12/29 09:01:48;;;;;;;3.23;2.93;;;;;;;8.60;100.00;153568.44;5015021;28;20463;-75
2023/12/29 09:04:15;;;;;;;3.60;3.00;;;;;;;8.61;100.00;153569.69;4977334;28;20473;-75
2023/12/29 09:06:42;;;;;;;3.20;2.73;;;;;;;8.59;100.00;153565.81;4994448;28;20536;-75
2023/12/29 09:09:12;;;;;;;4.30;3.00;;;;;;;8.60;100.00;153567.13;4980238;28;20447;-76
2023/12/29 09:11:39;;;;;;;3.30;2.60;;;;;;;8.58;100.00;153564.53;4979194;28;20454;-75
2023/12/29 09:14:05;;;;;;;4.03;2.70;;;;;;;8.60;100.00;153568.44;4980366;28;20532;-75
2023/12/29 09:16:32;;;;;;;3.03;2.73;;;;;;;8.61;100.00;153569.69;4979417;28;20544;-75
2023/12/29 09:19:00;;;;;;;3.00;2.70;;;;;;;8.63;100.00;153574.88;4997776;28;20484;-76
2023/12/29 09:21:26;;;;;;;3.57;2.30;;;;;;;8.63;100.00;153576.13;4980368;28;20469;-76
2023/12/29 09:23:53;;;;;;;3.03;2.70;;;;;;;8.68;100.00;153587.81;4976982;28;21002;-76
2023/12/29 09:26:19;;;;;;;3.00;2.60;;;;;;;8.70;100.00;153592.97;4979182;28;20469;-76
2023/12/29 09:28:47;;;;;;;2.30;1.93;;;;;;;8.74;100.00;153603.28;4979610;28;20532;-76
2023/12/29 09:31:13;;;;;;;2.77;2.13;;;;;;;8.80;100.00;153618.81;4979079;28;20957;-76
2023/12/29 09:33:43;;;;;;;2.83;2.20;;;;;;;8.82;100.00;153623.97;4982868;28;20457;-75
2023/12/29 09:36:11;;;;;;;2.90;2.30;;;;;;;8.83;100.00;153626.59;4993465;28;20465;-75
2023/12/29 09:38:37;;;;;;;2.80;2.30;;;;;;;8.86;100.00;153635.66;4980883;28;20462;-74
2023/12/29 09:41:06;;;;;;;3.53;2.83;;;;;;;8.87;100.00;153638.22;4980454;28;20510;-75
2023/12/29 09:43:33;;;;;;;2.53;2.10;;;;;;;8.90;100.00;153644.66;4979670;28;20577;-75
2023/12/29 09:46:00;;;;;;;3.03;2.30;;;;;;;8.91;100.00;153648.56;4978890;28;20462;-75
2023/12/29 09:48:28;;;;;;;3.50;2.57;;;;;;;8.92;100.00;153651.13;4981870;28;20449;-75
2023/12/29 09:50:55;;;;;;;2.93;2.63;;;;;;;8.93;100.00;153653.72;4992712;28;21008;-76
2023/12/29 09:53:22;;;;;;;3.43;2.67;;;;;;;8.93;100.00;153652.44;4978205;28;20450;-76
2023/12/29 09:55:52;;;;;;;2.43;2.00;;;;;;;8.93;100.00;153652.44;4979307;28;20458;-76
2023/12/29 09:58:20;;;;;;;3.60;2.60;;;;;;;8.92;100.00;153649.88;4979521;28;20552;-76
2023/12/29 10:00:47;;;;;;;4.50;2.20;;;;;;;8.89;100.00;153643.41;4994812;28;20473;-75
2023/12/29 10:03:14;;;;;;;2.83;2.47;;;;;;;8.89;100.00;153643.41;4985247;28;21014;-76
2023/12/29 10:05:44;;;;;;;3.37;2.73;;;;;;;8.92;100.00;153649.88;5013003;28;20461;-75
2023/12/29 10:08:11;;;;;;;2.50;2.10;;;;;;;8.95;100.00;153658.91;5015290;28;20527;-76
2023/12/29 10:10:40;;;;;;;3.43;2.50;;;;;;;8.95;100.00;153657.59;5000901;28;20480;-76
2023/12/29 10:13:07;;;;;;;2.20;2.00;;;;;;;8.94;100.00;153655.03;5014601;28;20453;-75
2023/12/29 10:15:38;;;;;;;3.73;2.30;;;;;;;8.94;100.00;153655.03;5011259;28;20486;-75
2023/12/29 10:18:08;;;;;;;2.40;2.00;;;;;;;8.95;100.00;153657.59;4982673;28;20437;-75
2023/12/29 10:20:45;;;;;;;2.60;2.40;;;;;;;8.95;100.00;153657.59;4996487;28;20798;-75
2023/12/29 10:23:14;;;;;;;2.73;2.17;;;;;;;8.95;100.00;153657.59;4998261;28;20559;-75
2023/12/29 10:25:41;;;;;;;2.60;1.97;;;;;;;8.96;100.00;153660.19;4980882;28;20463;-75
2023/12/29 10:28:09;;;;;;;2.57;2.10;;;;;;;8.99;100.00;153667.97;5003117;28;20449;-75
2023/12/29 10:30:36;;;;;;;2.33;2.00;;;;;;;8.99;100.00;153669.25;5011324;28;20556;-75
2023/12/29 10:33:04;;;;;;;2.70;2.10;;;;;;;9.01;100.00;153673.13;5001861;28;20446;-75
2023/12/29 10:35:31;;;;;;;2.30;1.90;;;;;;;9.04;100.00;153680.88;4977852;28;20967;-75
2023/12/29 10:38:09;;;;;;;2.00;1.70;;;;;;;9.09;100.00;153693.81;4979229;28;21046;-75
2023/12/29 10:40:35;;;;;;;2.27;1.70;;;;;;;9.12;100.00;153702.88;4998184;28;20464;-75
2023/12/29 10:43:06;;;;;;;2.20;1.60;;;;;;;9.15;100.00;153710.66;4979814;28;20464;-75
2023/12/29 10:45:33;;;;;;;1.80;1.40;;;;;;;9.18;100.00;153717.13;5011950;28;20467;-74
2023/12/29 10:48:01;;;;;;;2.43;2.00;;;;;;;9.21;100.00;153723.59;4999397;28;20453;-75
2023/12/29 10:50:28;;;;;;;2.97;1.97;;;;;;;9.26;100.00;153737.81;4998457;28;20463;-75
2023/12/29 10:53:11;;;;;;;2.80;2.00;;;;;;;9.29;100.00;153745.59;4996269;28;20552;-75
2023/12/29 10:55:38;;;;;;;2.50;2.10;;;;;;;9.33;100.00;153755.91;4977229;28;20547;-74
2023/12/29 10:58:06;;;;;;;2.07;1.50;;;;;;;9.38;100.00;153768.84;4998795;28;20464;-77
2023/12/29 11:00:33;;;;;;;2.23;2.03;;;;;;;9.39;100.00;153771.44;5010250;28;20452;-75
2023/12/29 11:03:00;;;;;;;2.40;2.00;;;;;;;9.42;100.00;153779.22;4998118;28;21138;-75
2023/12/29 11:05:27;;;;;;;1.90;1.70;;;;;;;9.47;100.00;153790.84;4990340;28;20497;-75
2023/12/29 11:07:54;;;;;;;2.10;1.50;;;;;;;9.47;100.00;153792.13;4979919;28;20465;-75
2023/12/29 11:10:21;;;;;;;2.20;1.80;;;;;;;9.49;100.00;153797.31;4956860;28;20462;-75
2023/12/29 11:12:48;;;;;;;1.93;1.60;;;;;;;9.50;100.00;153799.91;4977007;28;20457;-77
2023/12/29 11:15:17;;;;;;;2.40;1.80;;;;;;;9.53;100.00;153807.63;4975852;28;20453;-74
2023/12/29 11:17:49;;;;;;;1.77;1.40;;;;;;;9.55;100.00;153812.84;4997453;28;20457;-75
2023/12/29 11:20:16;;;;;;;3.73;2.00;;;;;;;9.53;100.00;153807.63;4978822;28;20454;-76
2023/12/29 11:22:43;;;;;;;2.00;1.53;;;;;;;9.55;100.00;153812.84;4980895;28;20557;-76
2023/12/29 11:25:10;;;;;;;2.40;1.83;;;;;;;9.58;100.00;153819.31;4980909;28;20493;-77